Time;durP1;ratioP1;P1;durP2;ratioP2;P2;SDS_P1;SDS_P2;PMS_P1;PMS_P2;Temp;Humidity;BMP_temperature;BMP_pressure;BME280_temperature;BME280_humidity;BME280_pressure;Samples;Min_cycle;Max_cycle;Signal;HPM_P1;HPM_P2
2022/09/15 00:01:40;;;;;;;8.80;3.00;;;;;;;13.34;68.02;99501.23;1680029;83;20979;-75
2022/09/15 00:04:25;;;;;;;5.50;2.98;;;;;;;13.31;68.10;99502.66;1679169;83;20929;-75
2022/09/15 00:07:10;;;;;;;6.17;3.20;;;;;;;13.30;68.16;99499.68;1688961;83;21049;-75
2022/09/15 00:09:55;;;;;;;6.60;2.72;;;;;;;13.30;68.13;99489.30;1685489;83;21607;-74
2022/09/15 00:12:40;;;;;;;4.17;2.58;;;;;;;13.28;68.14;99489.81;1691393;84;21001;-74
2022/09/15 00:15:25;;;;;;;7.10;2.80;;;;;;;13.23;68.18;99492.16;1688691;83;21504;-74
2022/09/15 00:18:10;;;;;;;4.58;2.75;;;;;;;13.19;68.26;99499.70;1691810;82;21503;-74
2022/09/15 00:20:55;;;;;;;5.15;3.10;;;;;;;13.16;68.30;99495.94;1702734;82;21391;-74
2022/09/15 00:23:40;;;;;;;7.25;3.25;;;;;;;13.13;68.33;99496.05;1714673;82;21036;-74
2022/09/15 00:26:28;;;;;;;5.50;2.98;;;;;;;13.13;68.35;99493.45;1711343;82;21073;-74
2022/09/15 00:29:13;;;;;;;6.70;2.62;;;;;;;13.11;68.40;99490.53;1678125;83;21491;-74
2022/09/15 00:31:58;;;;;;;4.90;2.85;;;;;;;13.07;68.43;99487.23;1671139;84;20981;-74
2022/09/15 00:34:44;;;;;;;7.77;3.00;;;;;;;13.03;68.46;99484.38;1705605;82;21069;-74
2022/09/15 00:37:29;;;;;;;5.05;3.05;;;;;;;12.98;68.47;99482.93;1707888;83;21041;-74
2022/09/15 00:40:14;;;;;;;3.40;2.67;;;;;;;12.97;68.59;99488.58;1662426;83;21037;-73
2022/09/15 00:43:00;;;;;;;7.45;2.55;;;;;;;12.97;68.60;99484.69;1701202;83;21037;-73
2022/09/15 00:45:45;;;;;;;3.87;2.40;;;;;;;13.00;68.65;99479.81;1681209;83;21591;-73
2022/09/15 00:48:30;;;;;;;2.90;2.02;;;;;;;12.99;68.68;99478.97;1694549;82;21094;-73
2022/09/15 00:51:20;;;;;;;4.43;2.33;;;;;;;12.99;68.67;99483.31;1704798;82;21021;-73
2022/09/15 00:54:10;;;;;;;3.22;2.20;;;;;;;12.95;68.67;99476.13;1671782;83;21057;-73
2022/09/15 00:57:00;;;;;;;5.25;2.70;;;;;;;12.90;68.69;99467.24;1696861;82;21119;-73
2022/09/15 00:59:47;;;;;;;3.65;2.40;;;;;;;12.87;68.81;99465.23;1697928;82;21068;-73
2022/09/15 01:02:33;;;;;;;4.47;2.83;;;;;;;12.87;68.88;99462.19;1678678;83;21076;-73
2022/09/15 01:05:23;;;;;;;3.10;2.05;;;;;;;12.88;68.88;99461.73;1703764;82;21033;-73
2022/09/15 01:08:16;;;;;;;5.12;2.10;;;;;;;12.88;68.89;99470.36;1719532;82;21069;-73
2022/09/15 01:11:02;;;;;;;3.27;2.33;;;;;;;12.89;68.91;99482.87;1696217;82;21041;-73
2022/09/15 01:13:47;;;;;;;3.83;2.42;;;;;;;12.88;68.96;99481.19;1697079;83;21121;-73
2022/09/15 01:17:08;;;;;;;5.55;2.98;;;;;;;12.84;68.97;99479.19;1699355;83;21465;-73
2022/09/15 01:20:30;;;;;;;4.30;2.90;;;;;;;12.81;69.06;99474.13;1660522;83;21078;-73
2022/09/15 01:23:39;;;;;;;8.25;2.30;;;;;;;12.81;69.11;99470.69;1706439;83;21306;-73
2022/09/15 01:26:35;;;;;;;3.83;2.20;;;;;;;12.82;69.17;99474.52;1677374;85;21038;-73
2022/09/15 01:29:30;;;;;;;;;;;;;;;12.85;69.19;99473.54;1706325;82;21107;-74
2022/09/15 01:33:02;;;;;;;7.40;2.50;;;;;;;12.87;69.47;99467.83;1671932;83;20373;-74
2022/09/15 01:36:02;;;;;;;6.37;2.65;;;;;;;12.84;69.20;99469.27;1687132;83;21520;-74
2022/09/15 01:39:01;;;;;;;7.25;2.92;;;;;;;12.83;69.28;99464.98;1683535;83;20973;-73
2022/09/15 01:41:54;;;;;;;8.18;2.47;;;;;;;12.84;69.33;99465.38;1712629;82;21073;-73
2022/09/15 01:44:57;;;;;;;4.00;2.40;;;;;;;12.84;69.33;99463.62;1692865;82;21299;-73
2022/09/15 01:47:42;;;;;;;4.12;2.85;;;;;;;12.82;69.37;99457.66;1641391;84;21089;-73
2022/09/15 01:50:39;;;;;;;9.08;2.80;;;;;;;12.84;69.39;99461.02;1659568;84;21110;-73
2022/09/15 01:53:25;;;;;;;3.60;3.05;;;;;;;12.84;69.45;99454.53;1679805;83;21053;-73
2022/09/15 01:56:10;;;;;;;;;;;;;;;12.83;69.45;99451.55;1671749;83;21102;-73
2022/09/15 01:58:56;;;;;;;7.15;3.65;;;;;;;12.83;69.83;99458.04;1679209;83;20243;-73
2022/09/15 02:02:03;;;;;;;8.28;2.72;;;;;;;12.82;69.55;99457.66;1682988;83;21096;-73
2022/09/15 02:04:59;;;;;;;14.35;3.67;;;;;;;12.82;69.56;99457.66;1688452;83;21493;-73
2022/09/15 02:08:10;;;;;;;3.87;2.70;;;;;;;12.82;69.60;99458.95;1640089;86;21478;-75
2022/09/15 02:11:16;;;;;;;5.60;2.80;;;;;;;12.84;69.60;99459.73;1679320;83;21045;-74
2022/09/15 02:14:35;;;;;;;6.50;2.73;;;;;;;12.85;69.63;99464.45;1668230;85;21449;-74
2022/09/15 02:17:20;;;;;;;7.17;3.27;;;;;;;12.81;69.65;99462.45;1679671;83;21060;-74
2022/09/15 02:20:41;;;;;;;5.58;2.87;;;;;;;12.80;69.71;99457.33;1677024;85;21040;-74
2022/09/15 02:23:35;;;;;;;5.17;2.67;;;;;;;12.80;69.73;99468.55;1690093;83;21488;-74
2022/09/15 02:26:25;;;;;;;5.47;3.17;;;;;;;12.79;69.77;99467.31;1668515;85;21118;-74
2022/09/15 02:29:15;;;;;;;5.10;3.22;;;;;;;12.76;69.81;99464.41;1677427;85;21934;-74
2022/09/15 02:32:03;;;;;;;3.95;2.40;;;;;;;12.77;69.84;99463.50;1669665;83;21592;-74
2022/09/15 02:34:50;;;;;;;7.83;3.08;;;;;;;12.76;69.89;99472.19;1671855;83;21084;-75
2022/09/15 02:37:37;;;;;;;5.90;2.95;;;;;;;12.78;69.90;99472.96;1674250;84;21135;-74
2022/09/15 02:40:23;;;;;;;6.62;2.87;;;;;;;12.78;69.91;99469.52;1658343;84;21712;-73
2022/09/15 02:43:13;;;;;;;9.08;3.00;;;;;;;12.79;69.95;99468.61;1687970;84;21101;-73
2022/09/15 02:45:58;;;;;;;8.58;3.10;;;;;;;12.78;70.00;99463.88;1693170;84;21061;-73
2022/09/15 02:48:43;;;;;;;8.73;3.27;;;;;;;12.78;70.03;99464.34;1687509;84;21034;-73
2022/09/15 02:51:29;;;;;;;9.80;3.15;;;;;;;12.78;70.11;99461.74;1683719;85;21611;-73
2022/09/15 02:54:15;;;;;;;5.58;2.98;;;;;;;12.79;70.11;99460.37;1683095;83;21088;-73
2022/09/15 02:57:00;;;;;;;7.67;2.65;;;;;;;12.80;70.14;99462.52;1684519;83;21079;-75
2022/09/15 03:02:53;;;;;;;7.30;2.60;;;;;;;12.81;70.18;99460.31;1681951;83;21032;-74
2022/09/15 03:05:38;;;;;;;7.97;2.62;;;;;;;12.82;70.23;99463.30;1674597;84;21045;-74
2022/09/15 03:08:23;;;;;;;4.78;2.55;;;;;;;12.82;70.24;99464.14;1662876;84;21052;-74
2022/09/15 03:11:09;;;;;;;4.67;2.35;;;;;;;12.80;70.24;99461.22;1675257;84;21044;-74
2022/09/15 03:14:01;;;;;;;10.58;3.08;;;;;;;12.80;70.29;99464.66;1655681;84;21318;-74
2022/09/15 03:16:46;;;;;;;5.28;2.20;;;;;;;12.82;70.37;99458.11;1671603;85;21391;-74
2022/09/15 03:19:31;;;;;;;6.92;2.47;;;;;;;12.81;70.38;99458.56;1671489;84;21072;-74
2022/09/15 03:22:16;;;;;;;8.15;2.80;;;;;;;12.80;70.42;99458.63;1660384;85;21005;-74
2022/09/15 03:25:06;;;;;;;5.85;2.37;;;;;;;12.81;70.42;99460.31;1674486;84;21576;-74
2022/09/15 03:27:51;;;;;;;3.42;2.20;;;;;;;12.82;70.47;99461.55;1683644;83;20962;-74
2022/09/15 03:30:36;;;;;;;4.80;2.35;;;;;;;12.84;70.46;99452.39;1665652;84;20942;-74
2022/09/15 03:33:22;;;;;;;6.10;2.37;;;;;;;12.85;70.49;99453.63;1682388;84;21561;-74
2022/09/15 03:36:08;;;;;;;3.90;2.30;;;;;;;12.84;70.51;99451.09;1656122;86;21125;-74
2022/09/15 03:38:57;;;;;;;4.12;2.30;;;;;;;12.84;70.51;99451.94;1693766;84;21077;-73
2022/09/15 03:41:41;;;;;;;6.05;2.72;;;;;;;12.84;70.60;99448.05;1640746;86;21109;-73
2022/09/15 03:44:27;;;;;;;5.28;2.30;;;;;;;12.86;70.61;99450.58;1672950;83;21468;-73
2022/09/15 03:47:12;;;;;;;4.67;2.20;;;;;;;12.86;70.61;99453.17;1677804;84;21088;-73
2022/09/15 03:49:57;;;;;;;11.33;2.50;;;;;;;12.87;70.67;99449.67;1680369;83;21269;-73
2022/09/15 03:52:42;;;;;;;4.95;2.62;;;;;;;12.89;70.73;99451.74;1646239;86;21022;-73
2022/09/15 03:55:28;;;;;;;6.67;2.08;;;;;;;12.92;70.75;99454.20;1685375;83;21115;-73
2022/09/15 03:58:13;;;;;;;4.55;2.17;;;;;;;12.94;70.76;99456.27;1675845;84;21624;-73
2022/09/15 04:00:58;;;;;;;6.17;3.17;;;;;;;12.94;70.80;99452.38;1637865;85;21379;-73
2022/09/15 04:03:43;;;;;;;5.83;2.40;;;;;;;12.96;70.83;99453.16;1681333;83;21033;-74
2022/09/15 04:06:28;;;;;;;5.05;2.52;;;;;;;12.98;70.86;99449.20;1676044;83;21542;-74
2022/09/15 04:09:13;;;;;;;3.72;2.52;;;;;;;13.00;70.88;99457.27;1682972;84;21557;-74
2022/09/15 04:11:58;;;;;;;6.58;2.50;;;;;;;13.01;70.91;99462.84;1669321;83;21502;-74
2022/09/15 04:14:43;;;;;;;5.05;2.45;;;;;;;13.02;70.93;99463.69;1676236;84;21020;-74
2022/09/15 04:17:28;;;;;;;6.70;2.58;;;;;;;13.03;70.99;99468.81;1659211;84;21033;-78
2022/09/15 04:20:16;;;;;;;10.82;2.85;;;;;;;13.04;71.02;99462.71;1698421;82;21051;-73
2022/09/15 04:23:00;;;;;;;7.60;2.33;;;;;;;13.06;71.08;99464.78;1694495;82;21845;-73
2022/09/15 04:26:03;;;;;;;8.65;2.72;;;;;;;13.10;71.08;99467.63;1695230;82;21109;-75
2022/09/15 04:28:48;;;;;;;7.25;2.50;;;;;;;13.13;71.11;99465.36;1699175;82;21009;-75
2022/09/15 04:31:33;;;;;;;9.23;2.70;;;;;;;13.15;71.13;99466.97;1666558;83;21053;-75
2022/09/15 04:34:18;;;;;;;5.05;2.30;;;;;;;13.16;71.15;99458.77;1702413;82;21085;-75
2022/09/15 04:37:03;;;;;;;10.72;2.42;;;;;;;13.17;71.16;99460.45;1699166;83;21628;-75
2022/09/15 04:39:48;;;;;;;5.55;2.30;;;;;;;13.16;71.17;99462.20;1695233;82;21116;-74
2022/09/15 04:42:33;;;;;;;8.78;2.30;;;;;;;13.16;71.18;99454.41;1700900;83;21068;-74
2022/09/15 04:45:18;;;;;;;7.22;2.42;;;;;;;13.15;71.20;99456.59;1688181;82;21022;-74
2022/09/15 04:48:04;;;;;;;5.20;2.12;;;;;;;13.16;71.25;99471.73;1698762;82;21821;-74
2022/09/15 04:50:49;;;;;;;8.15;2.65;;;;;;;13.14;71.24;99469.18;1690859;84;21561;-74
2022/09/15 04:53:36;;;;;;;4.70;3.02;;;;;;;13.14;71.24;99469.18;1689340;83;21497;-74
2022/09/15 04:56:24;;;;;;;9.50;4.55;;;;;;;13.14;71.27;99469.64;1665028;83;21050;-76
2022/09/15 04:59:14;;;;;;;10.80;4.47;;;;;;;13.13;71.32;99470.09;1694687;83;20985;-76
2022/09/15 05:01:59;;;;;;;7.70;3.87;;;;;;;13.14;71.34;99473.53;1671368;84;21072;-75
2022/09/15 05:04:44;;;;;;;10.80;3.52;;;;;;;13.14;71.35;99467.04;1669102;84;21049;-75
2022/09/15 05:07:29;;;;;;;7.65;3.08;;;;;;;13.14;71.40;99466.58;1673255;84;20965;-75
2022/09/15 05:10:15;;;;;;;5.95;2.60;;;;;;;13.14;71.40;99461.85;1693141;82;21458;-75
2022/09/15 05:13:00;;;;;;;8.15;2.58;;;;;;;13.15;71.43;99457.05;1692951;83;21034;-75
2022/09/15 05:15:44;;;;;;;5.47;2.25;;;;;;;13.15;71.49;99455.75;1698321;83;21072;-75
2022/09/15 05:18:30;;;;;;;7.15;2.40;;;;;;;13.16;71.46;99461.36;1699830;83;20966;-75
2022/09/15 05:21:18;;;;;;;6.55;2.22;;;;;;;13.16;71.50;99454.87;1693019;83;21084;-75
2022/09/15 05:24:04;;;;;;;4.50;2.30;;;;;;;13.13;71.52;99449.33;1663357;84;21303;-75
2022/09/15 05:26:48;;;;;;;6.12;2.52;;;;;;;13.15;71.54;99453.15;1705214;82;21034;-75
2022/09/15 05:29:34;;;;;;;5.65;2.60;;;;;;;13.16;71.56;99452.27;1656194;85;21002;-76
2022/09/15 05:32:19;;;;;;;8.38;2.47;;;;;;;13.19;71.64;99448.23;1669201;84;21096;-75
2022/09/15 05:35:05;;;;;;;11.00;3.02;;;;;;;13.29;71.70;99453.86;1668445;83;21073;-76
2022/09/15 05:37:50;;;;;;;6.80;2.27;;;;;;;13.38;71.71;99454.73;1699951;82;21474;-76
2022/09/15 05:40:35;;;;;;;7.58;2.35;;;;;;;13.49;71.75;99455.09;1704804;82;21376;-72
2022/09/15 05:43:19;;;;;;;8.58;2.12;;;;;;;13.58;71.76;99459.37;1695549;83;20938;-73
2022/09/15 05:46:06;;;;;;;7.65;2.80;;;;;;;13.69;71.74;99460.63;1670311;85;21403;-73
2022/09/15 05:48:53;;;;;;;6.65;2.17;;;;;;;13.76;71.74;99462.02;1700394;82;20957;-73
2022/09/15 05:51:37;;;;;;;4.92;2.00;;;;;;;13.86;71.76;99463.27;1700247;82;20898;-72
2022/09/15 05:54:22;;;;;;;5.67;1.87;;;;;;;13.93;71.75;99459.47;1703731;82;20902;-73
2022/09/15 05:57:07;;;;;;;6.78;2.20;;;;;;;14.00;71.76;99460.01;1701699;82;20938;-73
2022/09/15 05:59:52;;;;;;;7.22;2.95;;;;;;;14.11;71.83;99457.70;1699022;82;21501;-73
2022/09/15 06:02:37;;;;;;;9.93;2.40;;;;;;;14.30;71.92;99449.84;1699898;83;21563;-73
2022/09/15 06:05:22;;;;;;;5.15;2.37;;;;;;;14.57;72.00;99451.06;1699363;82;21088;-73
2022/09/15 06:08:07;;;;;;;4.40;2.20;;;;;;;15.08;72.10;99457.06;1684277;83;21076;-73
2022/09/15 06:10:52;;;;;;;4.72;2.40;;;;;;;15.76;72.11;99448.58;1686936;82;21392;-73
2022/09/15 06:13:38;;;;;;;5.75;2.05;;;;;;;16.45;71.99;99446.77;1697291;82;22265;-73
2022/09/15 06:16:25;;;;;;;4.37;2.17;;;;;;;17.06;71.78;99452.24;1694241;82;21107;-73
2022/09/15 06:19:10;;;;;;;6.40;2.00;;;;;;;17.67;71.81;99447.96;1689804;84;22019;-73
2022/09/15 06:21:55;;;;;;;8.03;2.47;;;;;;;18.28;71.58;99447.02;1697705;82;21064;-73
2022/09/15 06:24:40;;;;;;;4.80;1.70;;;;;;;18.75;71.45;99449.91;1678133;83;21077;-73
2022/09/15 06:27:25;;;;;;;4.78;2.42;;;;;;;19.26;71.21;99447.69;1691472;82;21125;-73
2022/09/15 06:30:12;;;;;;;7.10;2.17;;;;;;;19.80;71.24;99457.34;1689142;84;21097;-74
2022/09/15 06:32:58;;;;;;;3.67;1.57;;;;;;;20.28;71.11;99450.73;1691996;82;40623;-74
2022/09/15 06:35:42;;;;;;;5.92;2.40;;;;;;;20.86;71.02;99460.78;1669742;83;21058;-74
2022/09/15 06:38:28;;;;;;;6.75;1.80;;;;;;;21.45;70.69;99459.60;1687137;84;21113;-74
2022/09/15 06:41:14;;;;;;;8.95;2.30;;;;;;;22.11;70.64;99462.19;1669124;85;20977;-74
2022/09/15 06:43:59;;;;;;;5.55;1.98;;;;;;;22.82;70.31;99461.11;1698307;84;21479;-74
2022/09/15 06:46:44;;;;;;;6.83;1.95;;;;;;;23.45;70.15;99459.94;1700126;83;21069;-74
2022/09/15 06:49:30;;;;;;;4.85;1.80;;;;;;;24.10;70.08;99459.36;1696725;82;21045;-74
2022/09/15 06:52:15;;;;;;;5.92;1.92;;;;;;;24.66;69.83;99454.66;1691234;84;21111;-74
2022/09/15 06:55:00;;;;;;;5.28;1.62;;;;;;;25.10;69.73;99466.02;1692688;83;21100;-74
2022/09/15 06:57:46;;;;;;;4.42;1.60;;;;;;;25.59;69.53;99463.45;1690149;83;21556;-74
2022/09/15 07:00:31;;;;;;;4.12;1.95;;;;;;;26.01;69.13;99469.05;1667112;83;21395;-74
2022/09/15 07:03:16;;;;;;;2.98;1.60;;;;;;;26.48;68.47;99470.98;1680221;83;21588;-74
2022/09/15 07:06:02;;;;;;;3.30;1.62;;;;;;;26.87;67.64;99467.91;1675180;84;21029;-74
2022/09/15 07:08:48;;;;;;;5.70;1.98;;;;;;;26.94;66.76;99471.11;1692718;82;20990;-74
2022/09/15 07:11:34;;;;;;;7.75;2.25;;;;;;;27.17;66.95;99472.73;1679971;83;21092;-74
2022/09/15 07:14:19;;;;;;;3.42;1.55;;;;;;;27.46;66.38;99471.04;1661416;84;21126;-75
2022/09/15 07:17:04;;;;;;;4.97;1.65;;;;;;;27.70;65.66;99466.30;1674586;84;21150;-75
2022/09/15 07:19:49;;;;;;;3.42;1.32;;;;;;;28.00;64.68;99467.03;1656847;85;21108;-75
2022/09/15 07:22:34;;;;;;;3.52;1.75;;;;;;;28.21;64.09;99461.25;1697700;82;21107;-75
2022/09/15 07:25:19;;;;;;;4.45;1.55;;;;;;;28.18;63.88;99460.22;1672405;83;21477;-75
2022/09/15 07:28:04;;;;;;;4.80;1.72;;;;;;;28.53;63.09;99464.91;1688933;83;21029;-74
2022/09/15 07:30:50;;;;;;;6.30;1.67;;;;;;;28.94;62.36;99462.52;1699405;83;21104;-74
2022/09/15 07:33:36;;;;;;;;;;;;;;;29.10;61.21;99470.13;1696649;83;21056;-74
2022/09/15 07:36:21;;;;;;;1.85;1.10;;;;;;;28.76;60.62;99467.17;1697242;83;20185;-74
2022/09/15 07:39:06;;;;;;;4.80;1.62;;;;;;;28.60;61.14;99464.53;1673899;84;21089;-74
2022/09/15 07:41:51;;;;;;;7.00;1.80;;;;;;;28.92;60.28;99467.67;1697030;83;21088;-74
2022/09/15 07:44:36;;;;;;;3.45;1.40;;;;;;;28.46;59.62;99474.05;1699345;83;21040;-74
2022/09/15 07:47:22;;;;;;;4.03;1.52;;;;;;;28.27;59.17;99469.06;1659861;84;22221;-74
2022/09/15 07:50:07;;;;;;;2.83;1.40;;;;;;;27.89;58.99;99471.83;1694156;83;21118;-74
2022/09/15 07:52:56;;;;;;;;;;;;;;;27.54;58.93;99468.41;1677080;84;21053;-74
2022/09/15 07:55:41;;;;;;;5.17;1.60;;;;;;;28.29;57.70;99469.23;1668027;84;20163;-74
2022/09/15 07:58:26;;;;;;;5.00;2.10;;;;;;;29.56;56.65;99474.61;1671354;84;21053;-74
2022/09/15 08:01:15;;;;;;;3.55;1.45;;;;;;;30.64;55.89;99471.86;1671751;83;21434;-74
2022/09/15 08:04:00;;;;;;;5.85;1.60;;;;;;;31.63;55.19;99467.03;1675940;84;21615;-74
2022/09/15 08:06:45;;;;;;;3.50;1.50;;;;;;;32.74;54.65;99472.63;1701098;82;21049;-74
2022/09/15 08:09:30;;;;;;;2.05;1.22;;;;;;;33.54;53.99;99472.56;1680670;84;21045;-74
2022/09/15 08:12:16;;;;;;;2.00;1.40;;;;;;;34.03;53.03;99473.63;1686111;82;21041;-74
2022/09/15 08:15:03;;;;;;;1.80;1.40;;;;;;;34.72;53.19;99474.59;1667641;85;21044;-74
2022/09/15 08:17:48;;;;;;;2.37;1.57;;;;;;;35.05;52.19;99481.78;1691556;84;21600;-74
2022/09/15 08:20:33;;;;;;;2.92;1.52;;;;;;;34.97;50.87;99473.94;1688082;83;21104;-74
2022/09/15 08:23:18;;;;;;;2.27;1.87;;;;;;;35.09;51.17;99474.95;1682497;83;21505;-74
2022/09/15 08:26:10;;;;;;;2.90;1.20;;;;;;;35.15;50.69;99480.83;1699086;82;21278;-74
2022/09/15 08:28:55;;;;;;;1.70;1.40;;;;;;;34.35;50.07;99475.22;1674931;83;21525;-74
2022/09/15 08:31:40;;;;;;;2.33;0.90;;;;;;;31.99;50.01;99479.05;1689860;84;21478;-74
2022/09/15 08:34:26;;;;;;;2.97;1.30;;;;;;;30.05;49.99;99476.99;1671570;85;20970;-74
2022/09/15 08:37:11;;;;;;;2.60;1.20;;;;;;;28.47;50.44;99478.87;1701966;83;21071;-74
2022/09/15 08:39:56;;;;;;;3.37;1.10;;;;;;;27.19;49.91;99464.12;1666905;84;21037;-74
2022/09/15 08:42:44;;;;;;;2.62;1.27;;;;;;;26.12;49.83;99455.57;1695925;83;21073;-74
2022/09/15 08:45:34;;;;;;;3.22;1.50;;;;;;;25.14;48.84;99465.58;1682985;82;21045;-74
2022/09/15 08:48:23;;;;;;;3.27;1.22;;;;;;;24.35;49.44;99456.67;1669958;84;21065;-74
2022/09/15 08:53:51;;;;;;;2.50;1.32;;;;;;;23.47;48.67;99448.76;1831185;75;22213;-75
2022/09/15 08:56:36;;;;;;;2.50;1.10;;;;;;;22.51;48.36;99442.58;1809331;77;21008;-74
2022/09/15 08:59:22;;;;;;;3.08;0.80;;;;;;;22.51;48.36;99442.58;1791059;78;21465;-74
2022/09/15 09:02:15;;;;;;;1.50;0.85;;;;;;;22.03;48.21;99448.34;1816431;78;21000;-74
2022/09/15 09:05:35;;;;;;;4.40;0.90;;;;;;;21.66;48.26;99440.44;1791886;78;21460;-74
2022/09/15 09:08:44;;;;;;;2.17;0.90;;;;;;;21.41;48.28;99452.91;1812688;78;20955;-74
2022/09/15 09:11:56;;;;;;;1.40;0.90;;;;;;;21.19;48.26;99443.72;1801709;77;20921;-74
2022/09/15 09:15:21;;;;;;;3.22;0.90;;;;;;;21.15;48.22;99451.48;1769317;80;20971;-75
2022/09/15 09:18:33;;;;;;;1.05;0.70;;;;;;;21.06;48.28;99444.31;1774156;79;21009;-75
2022/09/15 09:21:38;;;;;;;1.57;0.90;;;;;;;21.03;48.23;99441.45;1814075;78;20956;-75
2022/09/15 09:24:40;;;;;;;3.77;0.85;;;;;;;20.89;48.26;99437.73;1764044;80;21512;-75
2022/09/15 09:27:29;;;;;;;1.17;0.90;;;;;;;20.77;48.33;99440.86;1732794;78;21072;-73
2022/09/15 09:30:23;;;;;;;3.27;0.90;;;;;;;20.62;48.32;99439.88;1803048;77;21276;-73
2022/09/15 09:33:36;;;;;;;2.47;0.80;;;;;;;20.60;48.47;99453.13;1813422;77;21060;-73
2022/09/15 09:36:22;;;;;;;2.92;0.80;;;;;;;20.62;48.45;99451.70;1806769;77;21555;-73
2022/09/15 09:39:11;;;;;;;1.62;0.68;;;;;;;20.46;48.43;99452.86;1779786;78;21652;-73
2022/09/15 09:41:56;;;;;;;1.62;0.82;;;;;;;20.34;48.59;99447.66;1795438;79;21058;-73
2022/09/15 09:44:41;;;;;;;3.55;1.20;;;;;;;20.18;48.66;99451.09;1794119;79;21440;-73
2022/09/15 09:47:31;;;;;;;2.98;1.10;;;;;;;19.97;48.81;99446.47;1788400;79;21067;-73
2022/09/15 09:50:39;;;;;;;3.85;1.20;;;;;;;19.79;48.87;99439.94;1780789;79;21106;-73
2022/09/15 09:53:32;;;;;;;1.62;0.80;;;;;;;19.60;48.89;99443.55;1768014;78;21077;-73
2022/09/15 09:56:24;;;;;;;2.65;1.15;;;;;;;19.34;49.03;99435.72;1786790;79;21087;-73
2022/09/15 09:59:37;;;;;;;1.77;0.90;;;;;;;19.21;49.15;99445.42;1764202;78;616698;-73
2022/09/15 10:02:25;;;;;;;3.72;0.95;;;;;;;19.09;49.32;99441.03;1679965;84;20956;-73
2022/09/15 10:05:19;;;;;;;2.72;1.02;;;;;;;19.00;49.55;99439.89;1676312;84;20949;-73
2022/09/15 10:08:04;;;;;;;4.50;0.88;;;;;;;18.89;49.53;99423.23;1678093;84;20980;-73
2022/09/15 10:10:52;;;;;;;5.33;1.27;;;;;;;18.83;49.75;99434.98;1679022;84;21580;-73
2022/09/15 10:13:42;;;;;;;6.10;0.98;;;;;;;18.81;49.90;99433.77;1677161;84;20980;-73
2022/09/15 10:16:27;;;;;;;5.30;0.93;;;;;;;18.82;50.08;99435.45;1675116;85;20925;-73
2022/09/15 10:19:14;;;;;;;4.33;1.07;;;;;;;18.81;50.16;99436.86;1674008;84;20917;-74
2022/09/15 10:22:01;;;;;;;6.15;1.40;;;;;;;18.81;50.26;99437.70;1679489;84;21371;-73
2022/09/15 10:24:48;;;;;;;6.03;0.70;;;;;;;18.79;50.37;99436.13;1677563;84;21568;-73
2022/09/15 10:27:36;;;;;;;3.00;1.10;;;;;;;18.78;50.58;99433.14;1705459;82;20944;-73
2022/09/15 10:30:22;;;;;;;3.62;0.95;;;;;;;18.87;50.75;99441.68;1673689;84;20962;-73
2022/09/15 10:33:27;;;;;;;2.00;0.98;;;;;;;19.01;50.88;99441.56;1676884;84;20967;-73
2022/09/15 10:36:19;;;;;;;3.27;1.13;;;;;;;19.14;50.96;99443.70;1704030;82;20923;-73
2022/09/15 10:39:26;;;;;;;3.75;0.80;;;;;;;19.26;51.12;99434.11;1674226;84;20962;-73
2022/09/15 10:42:22;;;;;;;1.80;0.70;;;;;;;19.40;51.21;99434.45;1696425;83;21551;-73
2022/09/15 10:45:30;;;;;;;2.72;1.20;;;;;;;19.55;51.35;99433.39;1696683;83;20924;-73
2022/09/15 10:48:35;;;;;;;3.75;0.80;;;;;;;19.64;51.43;99431.41;1703726;82;20939;-73
2022/09/15 10:51:37;;;;;;;3.05;1.00;;;;;;;19.69;51.47;99433.71;1696135;84;21449;-73
2022/09/15 10:54:43;;;;;;;3.30;0.68;;;;;;;19.76;51.57;99432.28;1694234;84;20956;-77
2022/09/15 10:57:58;;;;;;;2.47;0.78;;;;;;;19.73;51.71;99435.16;1703244;84;21222;-75
2022/09/15 11:01:09;;;;;;;3.02;0.80;;;;;;;19.71;51.68;99439.20;1677330;84;28057;-74
2022/09/15 11:04:22;;;;;;;2.77;1.00;;;;;;;19.73;51.76;99446.48;1711655;83;20959;-74
2022/09/15 11:07:33;;;;;;;2.47;0.95;;;;;;;19.79;51.85;99436.00;1697752;83;21339;-74
2022/09/15 11:10:32;;;;;;;4.75;1.50;;;;;;;19.79;51.88;99441.25;1689479;82;20923;-74
2022/09/15 11:13:35;;;;;;;1.60;0.90;;;;;;;19.80;51.93;99437.20;1677236;84;20931;-74
2022/09/15 11:16:53;;;;;;;2.37;0.82;;;;;;;19.86;51.87;99444.27;1643943;86;20974;-74
2022/09/15 11:19:58;;;;;;;1.75;0.78;;;;;;;19.85;51.88;99440.80;1674919;84;20927;-74
2022/09/15 11:23:16;;;;;;;1.95;0.90;;;;;;;19.81;51.90;99428.86;1647307;86;20946;-74
2022/09/15 11:26:06;;;;;;;0.78;0.50;;;;;;;19.83;51.98;99425.64;1673940;85;20945;-74
2022/09/15 11:28:59;;;;;;;2.20;0.82;;;;;;;19.90;51.98;99430.81;1674869;84;21418;-74
2022/09/15 11:31:48;;;;;;;3.60;0.72;;;;;;;19.95;51.98;99436.55;1701630;82;20904;-74
2022/09/15 11:34:48;;;;;;;1.52;0.50;;;;;;;19.95;51.88;99433.93;1696440;83;20927;-74
2022/09/15 11:37:43;;;;;;;2.35;0.82;;;;;;;20.01;51.95;99429.55;1697478;82;20995;-74
2022/09/15 11:40:33;;;;;;;1.10;0.80;;;;;;;20.02;51.88;99428.59;1699983;83;20972;-74
2022/09/15 11:43:35;;;;;;;3.85;0.80;;;;;;;20.06;52.01;99433.14;1703055;82;20927;-75
2022/09/15 11:46:40;;;;;;;1.85;0.93;;;;;;;20.09;52.00;99429.82;1650403;84;20923;-74
2022/09/15 11:49:39;;;;;;;1.50;0.60;;;;;;;20.12;51.98;99427.44;1701806;83;20940;-75
2022/09/15 11:52:51;;;;;;;3.55;0.80;;;;;;;20.11;51.90;99426.61;1707295;82;20972;-79
2022/09/15 11:55:48;;;;;;;1.52;0.70;;;;;;;20.07;51.82;99430.88;1713466;82;21124;-75
2022/09/15 11:59:01;;;;;;;2.15;0.50;;;;;;;20.02;51.60;99436.47;1685469;84;21058;-77
2022/09/15 12:02:00;;;;;;;1.72;0.57;;;;;;;19.95;51.51;99427.38;1705014;83;21063;-75
2022/09/15 12:05:11;;;;;;;4.17;0.95;;;;;;;19.93;51.54;99434.99;1687043;84;21536;-74
2022/09/15 12:08:20;;;;;;;4.30;0.85;;;;;;;19.90;51.49;99437.84;1711188;82;21066;-73
2022/09/15 12:11:24;;;;;;;2.25;0.82;;;;;;;19.87;51.43;99443.31;1673177;83;21059;-75
2022/09/15 12:14:15;;;;;;;1.37;0.60;;;;;;;19.85;51.41;99451.30;1609720;83;5000602;-75
2022/09/15 12:17:05;;;;;;;3.45;0.60;;;;;;;19.87;51.43;99444.63;1683974;84;21098;-76
2022/09/15 12:20:14;;;;;;;2.05;0.70;;;;;;;19.87;51.33;99444.15;1682877;82;20978;-75
2022/09/15 12:23:10;;;;;;;2.25;0.60;;;;;;;19.86;51.31;99444.27;1693683;82;21051;-79
2022/09/15 12:26:13;;;;;;;4.40;1.00;;;;;;;19.85;51.35;99442.11;1687473;82;21090;-76
2022/09/15 12:29:02;;;;;;;0.90;0.70;;;;;;;19.82;51.23;99442.33;1685192;83;20974;-76
2022/09/15 12:31:47;;;;;;;2.12;0.82;;;;;;;19.81;51.15;99444.13;1682745;83;21082;-75
2022/09/15 12:34:37;;;;;;;0.85;0.50;;;;;;;19.76;51.00;99448.86;1698170;82;21011;-75
2022/09/15 12:37:24;;;;;;;0.68;0.40;;;;;;;19.69;51.15;99441.11;1692677;82;21082;-76
2022/09/15 12:40:36;;;;;;;1.05;0.70;;;;;;;19.74;51.18;99452.10;1689218;82;21082;-76
2022/09/15 12:43:22;;;;;;;3.05;0.78;;;;;;;19.77;51.12;99450.54;1703101;82;21016;-74
2022/09/15 12:46:10;;;;;;;;;;;;;;;19.74;51.00;99449.95;1696513;82;21537;-74
2022/09/15 12:49:01;;;;;;;1.32;0.60;;;;;;;19.71;50.92;99444.92;1692814;81;20253;-74
2022/09/15 12:51:50;;;;;;;1.25;0.70;;;;;;;19.68;51.05;99443.84;1688828;82;21078;-74
2022/09/15 12:54:39;;;;;;;3.30;1.30;;;;;;;19.64;51.07;99448.47;1700587;82;21023;-74
2022/09/15 12:57:35;;;;;;;1.10;0.50;;;;;;;19.59;50.97;99444.02;1695335;82;21121;-74
2022/09/15 13:00:31;;;;;;;2.05;0.60;;;;;;;19.48;50.92;99451.78;1691528;82;21067;-74
2022/09/15 13:03:41;;;;;;;1.57;0.70;;;;;;;19.42;50.95;99449.59;1692321;82;21098;-74
2022/09/15 13:06:30;;;;;;;0.85;0.53;;;;;;;19.39;50.91;99445.41;1693637;82;21109;-74
2022/09/15 13:09:27;;;;;;;2.52;0.60;;;;;;;19.41;50.89;99441.37;1696408;82;21017;-74
2022/09/15 13:12:16;;;;;;;1.27;0.60;;;;;;;19.47;50.89;99446.17;1702194;82;21137;-77
2022/09/15 13:15:06;;;;;;;2.55;0.72;;;;;;;19.50;50.87;99444.65;1694258;82;21038;-74
2022/09/15 13:17:52;;;;;;;1.77;0.60;;;;;;;19.54;50.85;99433.50;1695179;82;21077;-76
2022/09/15 13:20:42;;;;;;;1.22;0.50;;;;;;;19.56;50.80;99431.13;1694231;82;21085;-74
2022/09/15 13:23:32;;;;;;;2.08;0.72;;;;;;;19.57;50.81;99434.12;1692502;82;21358;-75
2022/09/15 13:26:22;;;;;;;1.62;0.70;;;;;;;19.50;50.78;99438.09;1693893;82;21525;-75
2022/09/15 13:29:12;;;;;;;2.08;0.62;;;;;;;19.44;50.76;99441.15;1692706;82;20955;-75
2022/09/15 13:32:23;;;;;;;4.28;0.70;;;;;;;19.39;50.77;99433.61;1695364;83;20915;-75